SKBG/BGA METAR and TAF weather

Enter ICAO airport designator
Station Type Date Time Source
SKBG METAR 2022/12/04 11:00 UTC NOAA

SKBG 041100Z 33003KT 9999 SCT008 BKN030 18/17 Q1014 RMK A2996


Station Type Date Time Source
SKBG Decoded METAR 2022/12/04 11:00 UTC NOAA

Bucaramanga / Palonegro, Colombia (SKBG) 07-06N 073-12W
Dec 04, 2022 - 06:00 AM EST / 2022.12.04 1100 UTC
Wind: from the NNW (330 degrees) at 3 MPH (3 KT):0
Visibility: greater than 7 mile(s):0
Sky conditions: mostly cloudy
Temperature: 64 F (18 C)
Dew Point: 62 F (17 C)
Relative Humidity: 93%
Pressure (altimeter): 29.94 in. Hg (1014 hPa)
ob: SKBG 041100Z 33003KT 9999 SCT008 BKN030 18/17 Q1014 RMK A2996
cycle: 11

Station Type Date Time Source
SKBG TAF 2022/12/04 12:45 UTC NOAA

TAF SKBG 041030Z 0412/0512 VRB02KT 9999 SCT010
BECMG 0415/0417 32006KT SCT015
BECMG 0501/0503 VRB02KT SCT010
TEMPO 0508/0511 3000 BCFG SCT006 TX25/0419Z TN18/0510Z

Example: see airport list